Airfield :
LOGIN :

Register | Disclaimer

   EN    FR    IT 

 










Legend :    VFR   Marginal VFR   IFR   Intensive IFR   Very Intensive IFR
Visi :
Ceiling :
>= 8 km
>= 3000ft
5 to 8 km
1000 to 3000 ft
1500m to 5 km
500 to 1000 ft
800 to 1500m
200 to 500 ft
< 800m
< 200 ft
Symbols :   Thunderstorms  Fog  Heavy snow  Heavy precipitations  Wind > 20 kt
SIGMETs :     Misc.  Thunderstorms  Icing  Turbulence  Mountain Waves  Volcanic Ashes






- Airport Elevation : 844 ft
- IATA code : OSR


LKMT - Ostrava-Mosnov

CURRENT METAR :
  • 071430Z 22009KT 9999 FEW043 20/12 Q1023 NOSIG

EXPIRED METARs :
  • 071400Z 22010KT 9999 SCT043 21/12 Q1024 NOSIG
  • 071330Z 18006KT 110V230 9999 SCT045 21/12 Q1024 BECMG 22012KT
  • 071300Z VRB02KT 9999 FEW042 21/14 Q1025 NOSIG
  • 071230Z VRB02KT 9999 FEW030 21/13 Q1025 NOSIG
  • 071200Z VRB02KT 9999 FEW027 20/13 Q1026 NOSIG

TAF TAF LKMT
Valid from the 07 at 12:00 until the 08 at 18:00 UTC


071100Z 0712/0818 21009KT CAVOK
TEMPO 0807/0816 23014G28KT



MET'MAP, your aeronautical weather chart ! - Copyright ORBIFLY December 2007 - Disclaimer

ORBIFLY MET'MAP TEAM :

Programming & Development : Alexandra Zaïnal
Original concept : Baudouin d'Aumeries
Technical & hardware support : Manuel Goepfert
Assistance : Marc-Olivier Méhu




SOURCES & CREDITS :

   NOAA